sensor_id;sensor_type;location;lat;lon;timestamp;P1;durP1;ratioP1;P2;durP2;ratioP2
16766;SDS011;8501;49.926;8.404;2022-09-01T00:01:33;5.22;;;4.47;;
16766;SDS011;8501;49.926;8.404;2022-09-01T00:04:05;5.70;;;4.50;;
16766;SDS011;8501;49.926;8.404;2022-09-01T00:06:33;4.60;;;4.20;;
16766;SDS011;8501;49.926;8.404;2022-09-01T00:09:02;5.72;;;4.40;;
16766;SDS011;8501;49.926;8.404;2022-09-01T00:11:31;6.13;;;4.53;;
16766;SDS011;8501;49.926;8.404;2022-09-01T00:13:58;6.03;;;4.65;;
16766;SDS011;8501;49.926;8.404;2022-09-01T00:16:25;5.50;;;4.55;;
16766;SDS011;8501;49.926;8.404;2022-09-01T00:18:53;4.68;;;4.20;;
16766;SDS011;8501;49.926;8.404;2022-09-01T00:21:24;4.63;;;4.13;;
16766;SDS011;8501;49.926;8.404;2022-09-01T00:23:53;5.05;;;3.70;;
16766;SDS011;8501;49.926;8.404;2022-09-01T00:26:18;5.60;;;3.92;;
16766;SDS011;8501;49.926;8.404;2022-09-01T00:28:44;5.30;;;4.10;;
16766;SDS011;8501;49.926;8.404;2022-09-01T00:31:10;4.57;;;3.78;;
16766;SDS011;8501;49.926;8.404;2022-09-01T00:33:38;4.30;;;3.90;;
16766;SDS011;8501;49.926;8.404;2022-09-01T00:36:04;4.78;;;4.28;;
16766;SDS011;8501;49.926;8.404;2022-09-01T00:38:30;6.20;;;4.22;;
16766;SDS011;8501;49.926;8.404;2022-09-01T00:40:57;5.63;;;4.15;;
16766;SDS011;8501;49.926;8.404;2022-09-01T00:46:09;4.40;;;4.00;;
16766;SDS011;8501;49.926;8.404;2022-09-01T00:48:37;4.35;;;3.83;;
16766;SDS011;8501;49.926;8.404;2022-09-01T00:51:03;5.18;;;3.95;;
16766;SDS011;8501;49.926;8.404;2022-09-01T00:53:30;4.40;;;3.95;;
16766;SDS011;8501;49.926;8.404;2022-09-01T00:55:56;4.22;;;3.85;;
16766;SDS011;8501;49.926;8.404;2022-09-01T00:58:22;4.57;;;3.83;;
16766;SDS011;8501;49.926;8.404;2022-09-01T01:00:48;4.82;;;3.90;;
16766;SDS011;8501;49.926;8.404;2022-09-01T01:03:16;4.00;;;3.55;;
16766;SDS011;8501;49.926;8.404;2022-09-01T01:05:46;3.80;;;3.50;;
16766;SDS011;8501;49.926;8.404;2022-09-01T01:08:19;4.20;;;3.65;;
16766;SDS011;8501;49.926;8.404;2022-09-01T01:10:58;5.47;;;3.42;;
16766;SDS011;8501;49.926;8.404;2022-09-01T01:13:25;4.32;;;3.78;;
16766;SDS011;8501;49.926;8.404;2022-09-01T01:15:56;4.55;;;3.70;;
16766;SDS011;8501;49.926;8.404;2022-09-01T01:18:22;5.10;;;3.67;;
16766;SDS011;8501;49.926;8.404;2022-09-01T01:20:54;5.75;;;3.95;;
16766;SDS011;8501;49.926;8.404;2022-09-01T01:23:53;4.10;;;3.70;;
16766;SDS011;8501;49.926;8.404;2022-09-01T01:26:26;3.65;;;3.35;;
16766;SDS011;8501;49.926;8.404;2022-09-01T01:28:52;5.18;;;3.40;;
16766;SDS011;8501;49.926;8.404;2022-09-01T01:31:19;3.78;;;3.13;;
16766;SDS011;8501;49.926;8.404;2022-09-01T01:33:51;4.95;;;3.70;;
16766;SDS011;8501;49.926;8.404;2022-09-01T01:36:20;3.40;;;3.10;;
16766;SDS011;8501;49.926;8.404;2022-09-01T01:38:56;5.22;;;3.40;;
16766;SDS011;8501;49.926;8.404;2022-09-01T01:41:26;3.70;;;3.40;;
16766;SDS011;8501;49.926;8.404;2022-09-01T01:43:53;5.00;;;3.40;;
16766;SDS011;8501;49.926;8.404;2022-09-01T01:46:22;3.58;;;3.28;;
16766;SDS011;8501;49.926;8.404;2022-09-01T01:48:49;4.97;;;3.72;;
16766;SDS011;8501;49.926;8.404;2022-09-01T01:51:16;4.72;;;3.20;;
16766;SDS011;8501;49.926;8.404;2022-09-01T01:53:45;3.83;;;3.53;;
16766;SDS011;8501;49.926;8.404;2022-09-01T01:56:11;5.15;;;3.60;;
16766;SDS011;8501;49.926;8.404;2022-09-01T01:58:36;4.22;;;3.50;;
16766;SDS011;8501;49.926;8.404;2022-09-01T02:01:03;7.50;;;4.00;;
16766;SDS011;8501;49.926;8.404;2022-09-01T02:03:34;3.95;;;3.35;;
16766;SDS011;8501;49.926;8.404;2022-09-01T02:06:02;3.65;;;3.35;;
16766;SDS011;8501;49.926;8.404;2022-09-01T02:08:32;4.47;;;3.20;;
16766;SDS011;8501;49.926;8.404;2022-09-01T02:11:00;3.67;;;3.38;;
16766;SDS011;8501;49.926;8.404;2022-09-01T02:13:27;3.50;;;3.20;;
16766;SDS011;8501;49.926;8.404;2022-09-01T02:15:55;3.75;;;3.33;;
16766;SDS011;8501;49.926;8.404;2022-09-01T02:18:24;4.22;;;3.42;;
16766;SDS011;8501;49.926;8.404;2022-09-01T02:20:52;3.70;;;3.40;;
16766;SDS011;8501;49.926;8.404;2022-09-01T02:23:19;4.72;;;3.47;;
16766;SDS011;8501;49.926;8.404;2022-09-01T02:25:51;4.97;;;3.60;;
16766;SDS011;8501;49.926;8.404;2022-09-01T02:28:24;4.25;;;3.38;;
16766;SDS011;8501;49.926;8.404;2022-09-01T02:30:52;3.60;;;3.30;;
16766;SDS011;8501;49.926;8.404;2022-09-01T02:33:22;4.25;;;3.38;;
16766;SDS011;8501;49.926;8.404;2022-09-01T02:35:49;4.10;;;3.40;;
16766;SDS011;8501;49.926;8.404;2022-09-01T02:38:17;6.53;;;3.40;;
16766;SDS011;8501;49.926;8.404;2022-09-01T02:40:45;3.55;;;3.25;;
16766;SDS011;8501;49.926;8.404;2022-09-01T02:43:12;4.53;;;4.05;;
16766;SDS011;8501;49.926;8.404;2022-09-01T02:45:43;3.60;;;3.28;;
16766;SDS011;8501;49.926;8.404;2022-09-01T02:48:10;5.00;;;3.67;;
16766;SDS011;8501;49.926;8.404;2022-09-01T02:50:36;5.00;;;3.85;;
16766;SDS011;8501;49.926;8.404;2022-09-01T02:53:02;4.32;;;3.90;;
16766;SDS011;8501;49.926;8.404;2022-09-01T02:55:33;7.25;;;4.05;;
16766;SDS011;8501;49.926;8.404;2022-09-01T02:58:00;5.03;;;3.83;;
16766;SDS011;8501;49.926;8.404;2022-09-01T03:00:26;4.75;;;3.78;;
16766;SDS011;8501;49.926;8.404;2022-09-01T03:02:56;4.93;;;4.05;;
16766;SDS011;8501;49.926;8.404;2022-09-01T03:05:24;4.78;;;3.85;;
16766;SDS011;8501;49.926;8.404;2022-09-01T03:07:53;4.25;;;3.80;;
16766;SDS011;8501;49.926;8.404;2022-09-01T03:10:25;4.88;;;4.03;;
16766;SDS011;8501;49.926;8.404;2022-09-01T03:13:04;4.10;;;3.70;;
16766;SDS011;8501;49.926;8.404;2022-09-01T03:15:32;4.28;;;3.80;;
16766;SDS011;8501;49.926;8.404;2022-09-01T03:18:00;4.85;;;3.33;;
16766;SDS011;8501;49.926;8.404;2022-09-01T03:20:27;4.20;;;3.80;;
16766;SDS011;8501;49.926;8.404;2022-09-01T03:22:55;4.03;;;3.55;;
16766;SDS011;8501;49.926;8.404;2022-09-01T03:25:22;5.03;;;3.50;;
16766;SDS011;8501;49.926;8.404;2022-09-01T03:27:50;4.10;;;3.70;;
16766;SDS011;8501;49.926;8.404;2022-09-01T03:30:16;4.25;;;3.85;;
16766;SDS011;8501;49.926;8.404;2022-09-01T03:32:42;5.25;;;3.88;;
16766;SDS011;8501;49.926;8.404;2022-09-01T03:35:09;5.55;;;3.75;;
16766;SDS011;8501;49.926;8.404;2022-09-01T03:37:35;5.72;;;3.78;;
16766;SDS011;8501;49.926;8.404;2022-09-01T03:40:03;4.72;;;3.88;;
16766;SDS011;8501;49.926;8.404;2022-09-01T03:42:30;4.18;;;3.78;;
16766;SDS011;8501;49.926;8.404;2022-09-01T03:44:56;6.03;;;4.07;;
16766;SDS011;8501;49.926;8.404;2022-09-01T03:47:22;7.30;;;3.70;;
16766;SDS011;8501;49.926;8.404;2022-09-01T03:49:49;4.18;;;3.78;;
16766;SDS011;8501;49.926;8.404;2022-09-01T03:52:15;4.85;;;4.03;;
16766;SDS011;8501;49.926;8.404;2022-09-01T03:54:42;4.65;;;3.70;;
16766;SDS011;8501;49.926;8.404;2022-09-01T03:57:09;5.60;;;3.78;;
16766;SDS011;8501;49.926;8.404;2022-09-01T03:59:35;3.90;;;3.60;;
16766;SDS011;8501;49.926;8.404;2022-09-01T04:02:02;5.65;;;3.80;;
16766;SDS011;8501;49.926;8.404;2022-09-01T04:04:28;4.80;;;4.13;;
16766;SDS011;8501;49.926;8.404;2022-09-01T04:06:57;6.50;;;4.00;;
16766;SDS011;8501;49.926;8.404;2022-09-01T04:09:24;4.40;;;3.67;;
16766;SDS011;8501;49.926;8.404;2022-09-01T04:11:50;5.60;;;3.60;;
16766;SDS011;8501;49.926;8.404;2022-09-01T04:14:17;5.47;;;3.88;;
16766;SDS011;8501;49.926;8.404;2022-09-01T04:16:43;5.18;;;4.05;;
16766;SDS011;8501;49.926;8.404;2022-09-01T04:19:28;4.30;;;3.90;;
16766;SDS011;8501;49.926;8.404;2022-09-01T04:22:00;6.10;;;4.25;;
16766;SDS011;8501;49.926;8.404;2022-09-01T04:24:28;5.50;;;4.15;;
16766;SDS011;8501;49.926;8.404;2022-09-01T04:26:56;6.63;;;4.40;;
16766;SDS011;8501;49.926;8.404;2022-09-01T04:29:25;5.32;;;4.47;;
16766;SDS011;8501;49.926;8.404;2022-09-01T04:31:52;4.10;;;3.80;;
16766;SDS011;8501;49.926;8.404;2022-09-01T04:34:26;5.28;;;3.97;;
16766;SDS011;8501;49.926;8.404;2022-09-01T04:37:01;5.03;;;4.13;;
16766;SDS011;8501;49.926;8.404;2022-09-01T04:39:39;5.03;;;4.53;;
16766;SDS011;8501;49.926;8.404;2022-09-01T04:42:12;6.07;;;4.15;;
16766;SDS011;8501;49.926;8.404;2022-09-01T04:44:38;4.85;;;4.28;;
16766;SDS011;8501;49.926;8.404;2022-09-01T04:47:04;4.40;;;3.90;;
16766;SDS011;8501;49.926;8.404;2022-09-01T04:49:35;4.88;;;3.90;;
16766;SDS011;8501;49.926;8.404;2022-09-01T04:52:01;6.68;;;3.95;;
16766;SDS011;8501;49.926;8.404;2022-09-01T04:54:28;5.63;;;3.95;;
16766;SDS011;8501;49.926;8.404;2022-09-01T04:56:56;5.35;;;4.10;;
16766;SDS011;8501;49.926;8.404;2022-09-01T04:59:22;4.03;;;3.65;;
16766;SDS011;8501;49.926;8.404;2022-09-01T05:01:50;5.88;;;4.00;;
16766;SDS011;8501;49.926;8.404;2022-09-01T05:04:19;6.25;;;3.92;;
16766;SDS011;8501;49.926;8.404;2022-09-01T05:06:49;4.80;;;3.42;;
16766;SDS011;8501;49.926;8.404;2022-09-01T05:09:20;4.72;;;3.65;;
16766;SDS011;8501;49.926;8.404;2022-09-01T05:11:46;4.85;;;3.70;;
16766;SDS011;8501;49.926;8.404;2022-09-01T05:14:12;4.38;;;3.95;;
16766;SDS011;8501;49.926;8.404;2022-09-01T05:16:38;5.05;;;3.70;;
16766;SDS011;8501;49.926;8.404;2022-09-01T05:19:05;6.07;;;4.25;;
16766;SDS011;8501;49.926;8.404;2022-09-01T05:21:31;4.75;;;3.58;;
16766;SDS011;8501;49.926;8.404;2022-09-01T05:23:57;4.53;;;4.05;;
16766;SDS011;8501;49.926;8.404;2022-09-01T05:26:26;5.20;;;3.90;;
16766;SDS011;8501;49.926;8.404;2022-09-01T05:28:56;4.53;;;3.90;;
16766;SDS011;8501;49.926;8.404;2022-09-01T05:31:24;4.95;;;4.00;;
16766;SDS011;8501;49.926;8.404;2022-09-01T05:33:52;6.10;;;3.72;;
16766;SDS011;8501;49.926;8.404;2022-09-01T05:36:20;4.35;;;3.95;;
16766;SDS011;8501;49.926;8.404;2022-09-01T05:38:47;3.97;;;3.60;;
16766;SDS011;8501;49.926;8.404;2022-09-01T05:41:15;4.95;;;3.88;;
16766;SDS011;8501;49.926;8.404;2022-09-01T05:43:44;5.50;;;3.50;;
16766;SDS011;8501;49.926;8.404;2022-09-01T05:46:13;5.28;;;3.75;;
16766;SDS011;8501;49.926;8.404;2022-09-01T05:48:41;6.93;;;4.30;;
16766;SDS011;8501;49.926;8.404;2022-09-01T05:51:13;5.10;;;3.63;;
16766;SDS011;8501;49.926;8.404;2022-09-01T05:53:42;5.63;;;3.97;;
16766;SDS011;8501;49.926;8.404;2022-09-01T05:56:08;4.35;;;3.75;;
16766;SDS011;8501;49.926;8.404;2022-09-01T05:58:37;5.05;;;3.90;;
16766;SDS011;8501;49.926;8.404;2022-09-01T06:01:04;5.28;;;4.05;;
16766;SDS011;8501;49.926;8.404;2022-09-01T06:03:31;6.45;;;4.47;;
16766;SDS011;8501;49.926;8.404;2022-09-01T06:06:01;5.30;;;3.80;;
16766;SDS011;8501;49.926;8.404;2022-09-01T06:08:36;6.60;;;4.53;;
16766;SDS011;8501;49.926;8.404;2022-09-01T06:11:02;3.80;;;3.50;;
16766;SDS011;8501;49.926;8.404;2022-09-01T06:13:29;6.25;;;3.97;;
16766;SDS011;8501;49.926;8.404;2022-09-01T06:15:55;5.40;;;3.90;;
16766;SDS011;8501;49.926;8.404;2022-09-01T06:18:22;5.20;;;3.75;;
16766;SDS011;8501;49.926;8.404;2022-09-01T06:20:48;4.25;;;3.60;;
16766;SDS011;8501;49.926;8.404;2022-09-01T06:23:14;5.50;;;3.55;;
16766;SDS011;8501;49.926;8.404;2022-09-01T06:25:42;5.25;;;3.58;;
16766;SDS011;8501;49.926;8.404;2022-09-01T06:28:16;7.13;;;3.83;;
16766;SDS011;8501;49.926;8.404;2022-09-01T06:30:45;4.30;;;3.60;;
16766;SDS011;8501;49.926;8.404;2022-09-01T06:33:13;3.75;;;3.45;;
16766;SDS011;8501;49.926;8.404;2022-09-01T06:35:43;3.85;;;3.30;;
16766;SDS011;8501;49.926;8.404;2022-09-01T06:38:11;5.13;;;3.70;;
16766;SDS011;8501;49.926;8.404;2022-09-01T06:40:37;5.65;;;3.67;;
16766;SDS011;8501;49.926;8.404;2022-09-01T06:43:05;5.07;;;3.80;;
16766;SDS011;8501;49.926;8.404;2022-09-01T06:45:41;4.72;;;3.78;;
16766;SDS011;8501;49.926;8.404;2022-09-01T06:48:13;4.15;;;3.75;;
16766;SDS011;8501;49.926;8.404;2022-09-01T06:50:40;4.97;;;3.80;;
16766;SDS011;8501;49.926;8.404;2022-09-01T06:53:06;4.47;;;3.80;;
16766;SDS011;8501;49.926;8.404;2022-09-01T06:55:36;6.68;;;3.47;;
16766;SDS011;8501;49.926;8.404;2022-09-01T06:58:05;5.20;;;3.88;;
16766;SDS011;8501;49.926;8.404;2022-09-01T07:00:33;5.70;;;3.67;;
16766;SDS011;8501;49.926;8.404;2022-09-01T07:05:37;6.78;;;3.65;;
16766;SDS011;8501;49.926;8.404;2022-09-01T07:08:04;5.03;;;3.78;;
16766;SDS011;8501;49.926;8.404;2022-09-01T07:10:38;7.60;;;4.40;;
16766;SDS011;8501;49.926;8.404;2022-09-01T07:13:09;7.07;;;4.38;;
16766;SDS011;8501;49.926;8.404;2022-09-01T07:15:39;5.07;;;3.95;;
16766;SDS011;8501;49.926;8.404;2022-09-01T07:18:05;6.68;;;3.97;;
16766;SDS011;8501;49.926;8.404;2022-09-01T07:20:31;6.68;;;4.00;;
16766;SDS011;8501;49.926;8.404;2022-09-01T07:23:02;6.53;;;3.58;;
16766;SDS011;8501;49.926;8.404;2022-09-01T07:25:28;4.22;;;3.47;;
16766;SDS011;8501;49.926;8.404;2022-09-01T07:27:55;4.05;;;3.50;;
16766;SDS011;8501;49.926;8.404;2022-09-01T07:30:24;5.93;;;4.80;;
16766;SDS011;8501;49.926;8.404;2022-09-01T07:32:49;10.57;;;7.18;;
16766;SDS011;8501;49.926;8.404;2022-09-01T07:35:16;10.20;;;9.13;;
16766;SDS011;8501;49.926;8.404;2022-09-01T07:37:45;6.32;;;4.78;;
16766;SDS011;8501;49.926;8.404;2022-09-01T07:40:13;5.53;;;3.97;;
16766;SDS011;8501;49.926;8.404;2022-09-01T07:42:43;4.60;;;3.30;;
16766;SDS011;8501;49.926;8.404;2022-09-01T07:45:12;4.93;;;3.58;;
16766;SDS011;8501;49.926;8.404;2022-09-01T07:47:41;5.38;;;3.88;;
16766;SDS011;8501;49.926;8.404;2022-09-01T07:50:08;5.25;;;3.60;;
16766;SDS011;8501;49.926;8.404;2022-09-01T07:52:35;4.60;;;3.55;;
16766;SDS011;8501;49.926;8.404;2022-09-01T07:55:06;4.90;;;4.05;;
16766;SDS011;8501;49.926;8.404;2022-09-01T07:57:35;4.60;;;3.83;;
16766;SDS011;8501;49.926;8.404;2022-09-01T08:00:01;5.45;;;3.75;;
16766;SDS011;8501;49.926;8.404;2022-09-01T08:02:28;7.95;;;4.75;;
16766;SDS011;8501;49.926;8.404;2022-09-01T08:04:53;4.90;;;4.30;;
16766;SDS011;8501;49.926;8.404;2022-09-01T08:07:19;8.38;;;5.35;;
16766;SDS011;8501;49.926;8.404;2022-09-01T08:09:45;8.20;;;5.50;;
16766;SDS011;8501;49.926;8.404;2022-09-01T08:12:10;7.72;;;5.03;;
16766;SDS011;8501;49.926;8.404;2022-09-01T08:14:36;6.50;;;4.30;;
16766;SDS011;8501;49.926;8.404;2022-09-01T08:17:01;5.72;;;4.40;;
16766;SDS011;8501;49.926;8.404;2022-09-01T08:19:27;4.05;;;3.33;;
16766;SDS011;8501;49.926;8.404;2022-09-01T08:21:53;5.40;;;3.97;;
16766;SDS011;8501;49.926;8.404;2022-09-01T08:24:18;3.63;;;3.33;;
16766;SDS011;8501;49.926;8.404;2022-09-01T08:26:44;5.10;;;3.72;;
16766;SDS011;8501;49.926;8.404;2022-09-01T08:29:09;4.78;;;4.20;;
16766;SDS011;8501;49.926;8.404;2022-09-01T08:31:35;4.47;;;3.60;;
16766;SDS011;8501;49.926;8.404;2022-09-01T08:34:01;7.00;;;4.80;;
16766;SDS011;8501;49.926;8.404;2022-09-01T08:36:29;5.50;;;4.03;;
16766;SDS011;8501;49.926;8.404;2022-09-01T08:38:55;4.32;;;3.92;;
16766;SDS011;8501;49.926;8.404;2022-09-01T08:46:46;7.07;;;5.00;;
16766;SDS011;8501;49.926;8.404;2022-09-01T08:49:20;4.72;;;4.25;;
16766;SDS011;8501;49.926;8.404;2022-09-01T08:51:49;4.72;;;4.22;;
16766;SDS011;8501;49.926;8.404;2022-09-01T08:57:01;5.05;;;4.20;;
16766;SDS011;8501;49.926;8.404;2022-09-01T08:59:30;4.63;;;4.07;;
16766;SDS011;8501;49.926;8.404;2022-09-01T09:02:13;5.75;;;4.57;;
16766;SDS011;8501;49.926;8.404;2022-09-01T09:04:51;4.45;;;4.05;;
16766;SDS011;8501;49.926;8.404;2022-09-01T09:10:20;5.18;;;4.05;;
16766;SDS011;8501;49.926;8.404;2022-09-01T09:13:11;5.60;;;4.80;;
16766;SDS011;8501;49.926;8.404;2022-09-01T09:15:57;4.85;;;4.07;;
16766;SDS011;8501;49.926;8.404;2022-09-01T09:21:42;6.13;;;4.88;;
16766;SDS011;8501;49.926;8.404;2022-09-01T09:27:32;6.25;;;4.43;;
16766;SDS011;8501;49.926;8.404;2022-09-01T09:30:07;4.57;;;4.07;;
16766;SDS011;8501;49.926;8.404;2022-09-01T09:32:43;5.20;;;4.05;;
16766;SDS011;8501;49.926;8.404;2022-09-01T09:40:57;5.57;;;4.05;;
16766;SDS011;8501;49.926;8.404;2022-09-01T09:43:31;5.00;;;4.18;;
16766;SDS011;8501;49.926;8.404;2022-09-01T09:46:20;4.38;;;3.97;;
16766;SDS011;8501;49.926;8.404;2022-09-01T09:48:46;5.63;;;4.78;;
16766;SDS011;8501;49.926;8.404;2022-09-01T09:51:16;4.78;;;4.30;;
16766;SDS011;8501;49.926;8.404;2022-09-01T09:53:45;4.60;;;4.13;;
16766;SDS011;8501;49.926;8.404;2022-09-01T09:58:39;4.57;;;4.03;;
16766;SDS011;8501;49.926;8.404;2022-09-01T10:03:44;5.72;;;3.97;;
16766;SDS011;8501;49.926;8.404;2022-09-01T10:08:57;4.25;;;3.80;;
16766;SDS011;8501;49.926;8.404;2022-09-01T10:11:26;4.32;;;3.72;;
16766;SDS011;8501;49.926;8.404;2022-09-01T10:14:16;4.43;;;4.03;;
16766;SDS011;8501;49.926;8.404;2022-09-01T10:16:45;6.03;;;3.97;;
16766;SDS011;8501;49.926;8.404;2022-09-01T10:19:19;6.38;;;4.10;;
16766;SDS011;8501;49.926;8.404;2022-09-01T10:21:46;5.22;;;4.25;;
16766;SDS011;8501;49.926;8.404;2022-09-01T10:24:15;4.32;;;4.00;;
16766;SDS011;8501;49.926;8.404;2022-09-01T10:26:44;4.90;;;4.40;;
16766;SDS011;8501;49.926;8.404;2022-09-01T10:29:14;5.57;;;4.53;;
16766;SDS011;8501;49.926;8.404;2022-09-01T10:31:40;5.30;;;4.30;;
16766;SDS011;8501;49.926;8.404;2022-09-01T10:34:06;5.13;;;4.50;;
16766;SDS011;8501;49.926;8.404;2022-09-01T10:36:38;4.93;;;4.30;;
16766;SDS011;8501;49.926;8.404;2022-09-01T10:39:13;5.03;;;3.90;;
16766;SDS011;8501;49.926;8.404;2022-09-01T10:41:45;5.13;;;3.83;;
16766;SDS011;8501;49.926;8.404;2022-09-01T10:49:56;4.50;;;4.00;;
16766;SDS011;8501;49.926;8.404;2022-09-01T10:55:06;4.28;;;3.88;;
16766;SDS011;8501;49.926;8.404;2022-09-01T10:57:43;4.68;;;4.22;;
16766;SDS011;8501;49.926;8.404;2022-09-01T11:03:21;4.82;;;4.00;;
16766;SDS011;8501;49.926;8.404;2022-09-01T11:08:39;4.65;;;4.20;;
16766;SDS011;8501;49.926;8.404;2022-09-01T11:11:22;6.32;;;4.45;;
16766;SDS011;8501;49.926;8.404;2022-09-01T11:13:56;4.60;;;4.20;;
16766;SDS011;8501;49.926;8.404;2022-09-01T11:16:36;4.47;;;4.07;;
16766;SDS011;8501;49.926;8.404;2022-09-01T11:24:51;5.60;;;3.90;;
16766;SDS011;8501;49.926;8.404;2022-09-01T11:30:20;5.95;;;3.95;;
16766;SDS011;8501;49.926;8.404;2022-09-01T11:35:39;5.18;;;3.60;;
16766;SDS011;8501;49.926;8.404;2022-09-01T11:38:08;4.22;;;3.83;;
16766;SDS011;8501;49.926;8.404;2022-09-01T11:40:39;4.63;;;3.90;;
16766;SDS011;8501;49.926;8.404;2022-09-01T11:43:12;4.30;;;3.90;;
16766;SDS011;8501;49.926;8.404;2022-09-01T11:45:48;4.28;;;3.88;;
16766;SDS011;8501;49.926;8.404;2022-09-01T11:48:23;4.28;;;3.88;;
16766;SDS011;8501;49.926;8.404;2022-09-01T11:50:57;5.55;;;4.10;;
16766;SDS011;8501;49.926;8.404;2022-09-01T11:53:25;4.57;;;4.18;;
16766;SDS011;8501;49.926;8.404;2022-09-01T11:55:52;4.72;;;3.83;;
16766;SDS011;8501;49.926;8.404;2022-09-01T12:03:38;4.07;;;3.60;;
16766;SDS011;8501;49.926;8.404;2022-09-01T12:06:06;4.78;;;3.70;;
16766;SDS011;8501;49.926;8.404;2022-09-01T12:08:38;6.30;;;3.70;;
16766;SDS011;8501;49.926;8.404;2022-09-01T12:11:17;3.70;;;3.40;;
16766;SDS011;8501;49.926;8.404;2022-09-01T12:13:55;3.88;;;3.55;;
16766;SDS011;8501;49.926;8.404;2022-09-01T12:16:35;3.60;;;3.28;;
16766;SDS011;8501;49.926;8.404;2022-09-01T12:19:04;3.63;;;3.33;;
16766;SDS011;8501;49.926;8.404;2022-09-01T12:21:32;4.68;;;3.60;;
16766;SDS011;8501;49.926;8.404;2022-09-01T12:26:38;5.85;;;3.60;;
16766;SDS011;8501;49.926;8.404;2022-09-01T12:29:05;3.90;;;3.60;;
16766;SDS011;8501;49.926;8.404;2022-09-01T12:31:31;4.07;;;3.33;;
16766;SDS011;8501;49.926;8.404;2022-09-01T12:33:57;4.38;;;3.45;;
16766;SDS011;8501;49.926;8.404;2022-09-01T12:36:26;4.38;;;3.47;;
16766;SDS011;8501;49.926;8.404;2022-09-01T12:38:55;3.70;;;3.40;;
16766;SDS011;8501;49.926;8.404;2022-09-01T12:41:32;4.28;;;3.53;;
16766;SDS011;8501;49.926;8.404;2022-09-01T12:47:04;4.40;;;3.60;;
16766;SDS011;8501;49.926;8.404;2022-09-01T12:49:41;4.07;;;3.67;;
16766;SDS011;8501;49.926;8.404;2022-09-01T12:54:44;6.57;;;3.80;;
16766;SDS011;8501;49.926;8.404;2022-09-01T12:57:22;3.85;;;3.53;;
16766;SDS011;8501;49.926;8.404;2022-09-01T13:00:08;3.63;;;3.30;;
16766;SDS011;8501;49.926;8.404;2022-09-01T13:07:51;4.13;;;3.72;;
16766;SDS011;8501;49.926;8.404;2022-09-01T13:10:18;5.55;;;4.18;;
16766;SDS011;8501;49.926;8.404;2022-09-01T13:12:45;3.65;;;3.35;;
16766;SDS011;8501;49.926;8.404;2022-09-01T13:15:12;4.55;;;3.47;;
16766;SDS011;8501;49.926;8.404;2022-09-01T13:17:38;3.83;;;3.53;;
16766;SDS011;8501;49.926;8.404;2022-09-01T13:20:06;4.40;;;3.42;;
16766;SDS011;8501;49.926;8.404;2022-09-01T13:22:33;4.07;;;3.50;;
16766;SDS011;8501;49.926;8.404;2022-09-01T13:25:01;4.57;;;3.78;;
16766;SDS011;8501;49.926;8.404;2022-09-01T13:27:34;4.30;;;3.67;;
16766;SDS011;8501;49.926;8.404;2022-09-01T13:30:00;3.92;;;3.63;;
16766;SDS011;8501;49.926;8.404;2022-09-01T13:32:25;5.68;;;3.60;;
16766;SDS011;8501;49.926;8.404;2022-09-01T13:34:51;4.38;;;3.70;;
16766;SDS011;8501;49.926;8.404;2022-09-01T13:37:23;4.03;;;3.70;;
16766;SDS011;8501;49.926;8.404;2022-09-01T13:42:17;4.57;;;3.70;;
16766;SDS011;8501;49.926;8.404;2022-09-01T13:44:43;4.13;;;3.60;;
16766;SDS011;8501;49.926;8.404;2022-09-01T13:47:09;4.82;;;3.55;;
16766;SDS011;8501;49.926;8.404;2022-09-01T13:49:35;5.10;;;3.72;;
16766;SDS011;8501;49.926;8.404;2022-09-01T13:52:01;3.85;;;3.50;;
16766;SDS011;8501;49.926;8.404;2022-09-01T13:54:26;3.90;;;3.50;;
16766;SDS011;8501;49.926;8.404;2022-09-01T13:56:52;4.43;;;3.47;;
16766;SDS011;8501;49.926;8.404;2022-09-01T13:59:17;4.43;;;3.47;;
16766;SDS011;8501;49.926;8.404;2022-09-01T14:01:43;3.90;;;3.50;;
16766;SDS011;8501;49.926;8.404;2022-09-01T14:04:10;5.45;;;3.47;;
16766;SDS011;8501;49.926;8.404;2022-09-01T14:06:40;4.22;;;3.22;;
16766;SDS011;8501;49.926;8.404;2022-09-01T14:09:09;3.75;;;3.40;;
16766;SDS011;8501;49.926;8.404;2022-09-01T14:11:35;4.47;;;3.65;;
16766;SDS011;8501;49.926;8.404;2022-09-01T14:14:04;3.83;;;3.50;;
16766;SDS011;8501;49.926;8.404;2022-09-01T14:16:39;4.85;;;3.65;;
16766;SDS011;8501;49.926;8.404;2022-09-01T14:19:05;4.72;;;3.60;;
16766;SDS011;8501;49.926;8.404;2022-09-01T14:21:31;3.97;;;3.38;;
16766;SDS011;8501;49.926;8.404;2022-09-01T14:23:56;3.60;;;3.30;;
16766;SDS011;8501;49.926;8.404;2022-09-01T14:26:22;5.25;;;3.42;;
16766;SDS011;8501;49.926;8.404;2022-09-01T14:28:48;3.70;;;3.40;;
16766;SDS011;8501;49.926;8.404;2022-09-01T14:31:14;3.58;;;3.22;;
16766;SDS011;8501;49.926;8.404;2022-09-01T14:33:42;3.65;;;3.33;;
16766;SDS011;8501;49.926;8.404;2022-09-01T14:36:14;3.95;;;3.20;;
16766;SDS011;8501;49.926;8.404;2022-09-01T14:38:42;3.60;;;3.25;;
16766;SDS011;8501;49.926;8.404;2022-09-01T14:41:08;3.35;;;3.03;;
16766;SDS011;8501;49.926;8.404;2022-09-01T14:43:37;5.97;;;3.63;;
16766;SDS011;8501;49.926;8.404;2022-09-01T14:46:07;3.67;;;3.38;;
16766;SDS011;8501;49.926;8.404;2022-09-01T14:48:35;3.60;;;3.30;;
16766;SDS011;8501;49.926;8.404;2022-09-01T14:51:02;3.47;;;3.17;;
16766;SDS011;8501;49.926;8.404;2022-09-01T14:53:29;5.40;;;3.15;;
16766;SDS011;8501;49.926;8.404;2022-09-01T14:55:56;3.78;;;3.20;;
16766;SDS011;8501;49.926;8.404;2022-09-01T14:58:23;3.60;;;3.30;;
16766;SDS011;8501;49.926;8.404;2022-09-01T15:00:50;3.47;;;3.17;;
16766;SDS011;8501;49.926;8.404;2022-09-01T15:03:19;5.53;;;4.90;;
16766;SDS011;8501;49.926;8.404;2022-09-01T15:05:45;4.68;;;3.90;;
16766;SDS011;8501;49.926;8.404;2022-09-01T15:08:10;3.60;;;3.20;;
16766;SDS011;8501;49.926;8.404;2022-09-01T15:10:37;3.63;;;3.33;;
16766;SDS011;8501;49.926;8.404;2022-09-01T15:13:04;3.90;;;3.30;;
16766;SDS011;8501;49.926;8.404;2022-09-01T15:15:30;3.60;;;3.30;;
16766;SDS011;8501;49.926;8.404;2022-09-01T15:17:56;4.22;;;3.25;;
16766;SDS011;8501;49.926;8.404;2022-09-01T15:20:23;3.40;;;3.03;;
16766;SDS011;8501;49.926;8.404;2022-09-01T15:23:07;3.58;;;3.00;;
16766;SDS011;8501;49.926;8.404;2022-09-01T15:25:34;4.35;;;3.40;;
16766;SDS011;8501;49.926;8.404;2022-09-01T15:27:59;4.13;;;3.00;;
16766;SDS011;8501;49.926;8.404;2022-09-01T15:30:25;3.55;;;3.25;;
16766;SDS011;8501;49.926;8.404;2022-09-01T15:32:53;3.30;;;3.00;;
16766;SDS011;8501;49.926;8.404;2022-09-01T15:35:29;3.70;;;3.30;;
16766;SDS011;8501;49.926;8.404;2022-09-01T15:37:57;3.58;;;3.28;;
16766;SDS011;8501;49.926;8.404;2022-09-01T15:40:24;4.05;;;3.30;;
16766;SDS011;8501;49.926;8.404;2022-09-01T15:42:51;4.03;;;3.38;;
16766;SDS011;8501;49.926;8.404;2022-09-01T15:45:18;3.40;;;3.10;;
16766;SDS011;8501;49.926;8.404;2022-09-01T15:47:45;3.85;;;3.45;;
16766;SDS011;8501;49.926;8.404;2022-09-01T15:50:12;4.50;;;3.10;;
16766;SDS011;8501;49.926;8.404;2022-09-01T15:52:53;5.65;;;3.30;;
16766;SDS011;8501;49.926;8.404;2022-09-01T15:55:29;6.63;;;3.58;;
16766;SDS011;8501;49.926;8.404;2022-09-01T15:58:00;4.05;;;3.40;;
16766;SDS011;8501;49.926;8.404;2022-09-01T16:00:27;4.13;;;3.25;;
16766;SDS011;8501;49.926;8.404;2022-09-01T16:02:53;4.75;;;3.20;;
16766;SDS011;8501;49.926;8.404;2022-09-01T16:05:21;3.60;;;3.08;;
16766;SDS011;8501;49.926;8.404;2022-09-01T16:07:49;3.85;;;3.10;;
16766;SDS011;8501;49.926;8.404;2022-09-01T16:10:16;3.22;;;3.00;;
16766;SDS011;8501;49.926;8.404;2022-09-01T16:12:44;3.50;;;2.90;;
16766;SDS011;8501;49.926;8.404;2022-09-01T16:15:11;3.58;;;3.08;;
16766;SDS011;8501;49.926;8.404;2022-09-01T16:20:09;4.05;;;3.20;;
16766;SDS011;8501;49.926;8.404;2022-09-01T16:22:43;4.10;;;3.20;;
16766;SDS011;8501;49.926;8.404;2022-09-01T16:25:18;3.38;;;3.08;;
16766;SDS011;8501;49.926;8.404;2022-09-01T16:27:50;3.50;;;3.20;;
16766;SDS011;8501;49.926;8.404;2022-09-01T16:30:21;4.55;;;3.38;;
16766;SDS011;8501;49.926;8.404;2022-09-01T16:32:51;3.42;;;2.90;;
16766;SDS011;8501;49.926;8.404;2022-09-01T16:35:17;4.43;;;3.13;;
16766;SDS011;8501;49.926;8.404;2022-09-01T16:43:22;3.58;;;2.90;;